sensor_id;sensor_type;location;lat;lon;timestamp;P1;durP1;ratioP1;P2;durP2;ratioP2
990;SDS011;484;48.128;11.602;2023-02-28T00:02:19;1.30;;;1.20;;
990;SDS011;484;48.128;11.602;2023-02-28T00:05:05;0.97;;;0.97;;
990;SDS011;484;48.128;11.602;2023-02-28T00:07:51;1.63;;;1.33;;
990;SDS011;484;48.128;11.602;2023-02-28T00:10:36;0.80;;;0.80;;
990;SDS011;484;48.128;11.602;2023-02-28T00:13:22;2.50;;;1.37;;
990;SDS011;484;48.128;11.602;2023-02-28T00:16:09;6.20;;;2.60;;
990;SDS011;484;48.128;11.602;2023-02-28T00:18:56;2.50;;;1.53;;
990;SDS011;484;48.128;11.602;2023-02-28T00:21:42;1.20;;;1.20;;
990;SDS011;484;48.128;11.602;2023-02-28T00:24:27;1.10;;;1.10;;
990;SDS011;484;48.128;11.602;2023-02-28T00:27:12;1.87;;;1.67;;
990;SDS011;484;48.128;11.602;2023-02-28T00:29:58;1.00;;;1.00;;
990;SDS011;484;48.128;11.602;2023-02-28T00:32:45;4.30;;;1.77;;
990;SDS011;484;48.128;11.602;2023-02-28T00:35:31;1.47;;;1.00;;
990;SDS011;484;48.128;11.602;2023-02-28T00:38:16;1.00;;;1.00;;
990;SDS011;484;48.128;11.602;2023-02-28T00:41:02;1.60;;;1.50;;
990;SDS011;484;48.128;11.602;2023-02-28T00:43:48;1.50;;;1.40;;
990;SDS011;484;48.128;11.602;2023-02-28T00:46:33;15.00;;;3.53;;
990;SDS011;484;48.128;11.602;2023-02-28T00:49:20;3.60;;;1.50;;
990;SDS011;484;48.128;11.602;2023-02-28T00:52:06;1.67;;;1.43;;
990;SDS011;484;48.128;11.602;2023-02-28T00:54:51;3.50;;;1.83;;
990;SDS011;484;48.128;11.602;2023-02-28T00:57:36;1.63;;;1.50;;
990;SDS011;484;48.128;11.602;2023-02-28T01:00:21;2.70;;;1.67;;
990;SDS011;484;48.128;11.602;2023-02-28T01:03:07;1.90;;;1.67;;
990;SDS011;484;48.128;11.602;2023-02-28T01:05:54;1.70;;;1.57;;
990;SDS011;484;48.128;11.602;2023-02-28T01:08:39;1.00;;;1.00;;
990;SDS011;484;48.128;11.602;2023-02-28T01:11:24;1.50;;;1.40;;
990;SDS011;484;48.128;11.602;2023-02-28T01:14:11;2.10;;;2.00;;
990;SDS011;484;48.128;11.602;2023-02-28T01:16:57;4.67;;;2.63;;
990;SDS011;484;48.128;11.602;2023-02-28T01:19:42;1.77;;;1.70;;
990;SDS011;484;48.128;11.602;2023-02-28T01:22:29;2.73;;;1.37;;
990;SDS011;484;48.128;11.602;2023-02-28T01:25:15;1.20;;;1.20;;
990;SDS011;484;48.128;11.602;2023-02-28T01:28:00;2.23;;;2.13;;
990;SDS011;484;48.128;11.602;2023-02-28T01:30:47;0.83;;;0.83;;
990;SDS011;484;48.128;11.602;2023-02-28T01:33:33;1.50;;;1.50;;
990;SDS011;484;48.128;11.602;2023-02-28T01:36:21;2.30;;;1.23;;
990;SDS011;484;48.128;11.602;2023-02-28T01:39:08;2.03;;;1.83;;
990;SDS011;484;48.128;11.602;2023-02-28T01:41:53;1.00;;;0.93;;
990;SDS011;484;48.128;11.602;2023-02-28T01:44:55;2.20;;;2.10;;
990;SDS011;484;48.128;11.602;2023-02-28T01:47:43;2.73;;;2.20;;
990;SDS011;484;48.128;11.602;2023-02-28T01:50:29;2.23;;;2.00;;
990;SDS011;484;48.128;11.602;2023-02-28T01:53:16;1.63;;;1.53;;
990;SDS011;484;48.128;11.602;2023-02-28T01:56:06;1.60;;;1.50;;
990;SDS011;484;48.128;11.602;2023-02-28T01:58:52;3.70;;;2.20;;
990;SDS011;484;48.128;11.602;2023-02-28T02:01:38;1.73;;;1.40;;
990;SDS011;484;48.128;11.602;2023-02-28T02:04:24;2.13;;;1.93;;
990;SDS011;484;48.128;11.602;2023-02-28T02:07:12;1.93;;;1.83;;
990;SDS011;484;48.128;11.602;2023-02-28T02:10:03;3.57;;;2.80;;
990;SDS011;484;48.128;11.602;2023-02-28T02:16:09;1.07;;;1.07;;
990;SDS011;484;48.128;11.602;2023-02-28T02:19:04;1.43;;;1.33;;
990;SDS011;484;48.128;11.602;2023-02-28T02:22:12;2.20;;;2.00;;
990;SDS011;484;48.128;11.602;2023-02-28T02:25:19;2.50;;;2.37;;
990;SDS011;484;48.128;11.602;2023-02-28T02:28:22;2.33;;;1.97;;
990;SDS011;484;48.128;11.602;2023-02-28T02:31:20;1.37;;;1.27;;
990;SDS011;484;48.128;11.602;2023-02-28T02:37:25;1.60;;;1.50;;
990;SDS011;484;48.128;11.602;2023-02-28T02:40:16;1.77;;;1.67;;
990;SDS011;484;48.128;11.602;2023-02-28T02:43:04;1.57;;;1.47;;
990;SDS011;484;48.128;11.602;2023-02-28T02:45:56;1.73;;;1.60;;
990;SDS011;484;48.128;11.602;2023-02-28T02:48:43;1.47;;;1.37;;
990;SDS011;484;48.128;11.602;2023-02-28T02:51:31;1.20;;;1.10;;
990;SDS011;484;48.128;11.602;2023-02-28T02:54:19;1.43;;;1.33;;
990;SDS011;484;48.128;11.602;2023-02-28T02:57:06;4.20;;;2.53;;
990;SDS011;484;48.128;11.602;2023-02-28T02:59:53;2.70;;;2.50;;
990;SDS011;484;48.128;11.602;2023-02-28T03:02:40;4.20;;;3.90;;
990;SDS011;484;48.128;11.602;2023-02-28T03:05:26;1.80;;;1.70;;
990;SDS011;484;48.128;11.602;2023-02-28T03:08:14;1.30;;;1.30;;
990;SDS011;484;48.128;11.602;2023-02-28T03:11:01;2.27;;;2.10;;
990;SDS011;484;48.128;11.602;2023-02-28T03:17:13;0.93;;;0.93;;
990;SDS011;484;48.128;11.602;2023-02-28T03:20:14;2.20;;;2.10;;
990;SDS011;484;48.128;11.602;2023-02-28T03:23:09;3.23;;;1.53;;
990;SDS011;484;48.128;11.602;2023-02-28T03:26:02;1.80;;;1.70;;
990;SDS011;484;48.128;11.602;2023-02-28T03:28:51;1.40;;;1.30;;
990;SDS011;484;48.128;11.602;2023-02-28T03:31:41;1.83;;;1.43;;
990;SDS011;484;48.128;11.602;2023-02-28T03:34:30;2.67;;;2.53;;
990;SDS011;484;48.128;11.602;2023-02-28T03:37:18;3.17;;;2.87;;
990;SDS011;484;48.128;11.602;2023-02-28T03:40:06;1.47;;;1.33;;
990;SDS011;484;48.128;11.602;2023-02-28T03:42:59;1.53;;;1.43;;
990;SDS011;484;48.128;11.602;2023-02-28T03:45:46;3.10;;;2.90;;
990;SDS011;484;48.128;11.602;2023-02-28T03:48:35;1.50;;;1.37;;
990;SDS011;484;48.128;11.602;2023-02-28T03:51:22;2.87;;;2.17;;
990;SDS011;484;48.128;11.602;2023-02-28T03:54:09;1.80;;;1.70;;
990;SDS011;484;48.128;11.602;2023-02-28T03:56:58;1.30;;;1.20;;
990;SDS011;484;48.128;11.602;2023-02-28T03:59:47;1.97;;;1.87;;
990;SDS011;484;48.128;11.602;2023-02-28T04:02:34;1.70;;;1.60;;
990;SDS011;484;48.128;11.602;2023-02-28T04:05:20;1.83;;;1.73;;
990;SDS011;484;48.128;11.602;2023-02-28T04:08:06;6.30;;;3.53;;
990;SDS011;484;48.128;11.602;2023-02-28T04:10:54;1.93;;;1.83;;
990;SDS011;484;48.128;11.602;2023-02-28T04:13:41;2.07;;;1.97;;
990;SDS011;484;48.128;11.602;2023-02-28T04:16:28;5.90;;;2.63;;
990;SDS011;484;48.128;11.602;2023-02-28T04:19:14;2.00;;;1.90;;
990;SDS011;484;48.128;11.602;2023-02-28T04:21:59;2.30;;;1.27;;
990;SDS011;484;48.128;11.602;2023-02-28T04:24:45;3.23;;;1.67;;
990;SDS011;484;48.128;11.602;2023-02-28T04:27:30;6.30;;;4.20;;
990;SDS011;484;48.128;11.602;2023-02-28T04:30:16;3.03;;;2.83;;
990;SDS011;484;48.128;11.602;2023-02-28T04:33:03;1.90;;;1.80;;
990;SDS011;484;48.128;11.602;2023-02-28T04:35:48;6.20;;;3.90;;
990;SDS011;484;48.128;11.602;2023-02-28T04:38:43;3.20;;;3.00;;
990;SDS011;484;48.128;11.602;2023-02-28T04:41:29;2.40;;;2.30;;
990;SDS011;484;48.128;11.602;2023-02-28T04:44:15;2.80;;;2.70;;
990;SDS011;484;48.128;11.602;2023-02-28T04:47:00;4.37;;;4.07;;
990;SDS011;484;48.128;11.602;2023-02-28T04:49:47;2.43;;;2.23;;
990;SDS011;484;48.128;11.602;2023-02-28T04:52:32;2.80;;;2.60;;
990;SDS011;484;48.128;11.602;2023-02-28T04:55:18;2.43;;;2.03;;
990;SDS011;484;48.128;11.602;2023-02-28T04:58:03;2.23;;;2.13;;
990;SDS011;484;48.128;11.602;2023-02-28T05:00:49;2.17;;;1.97;;
990;SDS011;484;48.128;11.602;2023-02-28T05:03:34;4.83;;;4.53;;
990;SDS011;484;48.128;11.602;2023-02-28T05:06:22;3.50;;;2.80;;
990;SDS011;484;48.128;11.602;2023-02-28T05:09:08;6.10;;;3.60;;
990;SDS011;484;48.128;11.602;2023-02-28T05:11:55;5.03;;;2.30;;
990;SDS011;484;48.128;11.602;2023-02-28T05:14:40;3.40;;;3.20;;
990;SDS011;484;48.128;11.602;2023-02-28T05:17:26;6.53;;;2.67;;
990;SDS011;484;48.128;11.602;2023-02-28T05:20:12;3.00;;;2.77;;
990;SDS011;484;48.128;11.602;2023-02-28T05:22:59;2.73;;;2.53;;
990;SDS011;484;48.128;11.602;2023-02-28T05:25:45;3.17;;;3.07;;
990;SDS011;484;48.128;11.602;2023-02-28T05:28:30;2.70;;;2.50;;
990;SDS011;484;48.128;11.602;2023-02-28T05:31:16;5.07;;;1.57;;
990;SDS011;484;48.128;11.602;2023-02-28T05:34:01;4.20;;;2.47;;
990;SDS011;484;48.128;11.602;2023-02-28T05:36:47;4.30;;;4.10;;
990;SDS011;484;48.128;11.602;2023-02-28T05:39:34;3.73;;;1.63;;
990;SDS011;484;48.128;11.602;2023-02-28T05:42:21;4.20;;;3.80;;
990;SDS011;484;48.128;11.602;2023-02-28T05:45:07;3.30;;;2.97;;
990;SDS011;484;48.128;11.602;2023-02-28T05:47:53;7.00;;;4.87;;
990;SDS011;484;48.128;11.602;2023-02-28T05:50:39;12.03;;;3.90;;
990;SDS011;484;48.128;11.602;2023-02-28T05:53:26;4.43;;;3.20;;
990;SDS011;484;48.128;11.602;2023-02-28T05:56:12;3.57;;;3.37;;
990;SDS011;484;48.128;11.602;2023-02-28T05:58:58;5.03;;;4.73;;
990;SDS011;484;48.128;11.602;2023-02-28T06:01:44;3.90;;;3.70;;
990;SDS011;484;48.128;11.602;2023-02-28T06:04:32;5.57;;;4.33;;
990;SDS011;484;48.128;11.602;2023-02-28T06:07:17;3.20;;;3.00;;
990;SDS011;484;48.128;11.602;2023-02-28T06:10:03;5.33;;;4.50;;
990;SDS011;484;48.128;11.602;2023-02-28T06:12:50;6.17;;;4.00;;
990;SDS011;484;48.128;11.602;2023-02-28T06:15:37;3.93;;;3.63;;
990;SDS011;484;48.128;11.602;2023-02-28T06:18:23;5.40;;;4.93;;
990;SDS011;484;48.128;11.602;2023-02-28T06:21:08;5.53;;;4.90;;
990;SDS011;484;48.128;11.602;2023-02-28T06:23:54;5.03;;;4.63;;
990;SDS011;484;48.128;11.602;2023-02-28T06:26:40;7.40;;;2.50;;
990;SDS011;484;48.128;11.602;2023-02-28T06:29:26;5.70;;;5.10;;
990;SDS011;484;48.128;11.602;2023-02-28T06:32:12;13.93;;;4.70;;
990;SDS011;484;48.128;11.602;2023-02-28T06:34:57;4.37;;;3.77;;
990;SDS011;484;48.128;11.602;2023-02-28T06:37:43;5.30;;;4.80;;
990;SDS011;484;48.128;11.602;2023-02-28T06:40:28;4.90;;;4.60;;
990;SDS011;484;48.128;11.602;2023-02-28T06:43:15;4.67;;;4.23;;
990;SDS011;484;48.128;11.602;2023-02-28T06:46:03;4.80;;;4.43;;
990;SDS011;484;48.128;11.602;2023-02-28T06:48:50;6.63;;;5.30;;
990;SDS011;484;48.128;11.602;2023-02-28T06:51:38;5.53;;;5.07;;
990;SDS011;484;48.128;11.602;2023-02-28T06:54:25;29.83;;;7.07;;
990;SDS011;484;48.128;11.602;2023-02-28T06:57:10;10.57;;;4.43;;
990;SDS011;484;48.128;11.602;2023-02-28T06:59:56;5.30;;;4.80;;
990;SDS011;484;48.128;11.602;2023-02-28T07:02:43;6.83;;;6.27;;
990;SDS011;484;48.128;11.602;2023-02-28T07:05:29;5.17;;;4.73;;
990;SDS011;484;48.128;11.602;2023-02-28T07:08:15;6.17;;;5.57;;
990;SDS011;484;48.128;11.602;2023-02-28T07:11:00;5.90;;;5.40;;
990;SDS011;484;48.128;11.602;2023-02-28T07:13:45;11.33;;;6.70;;
990;SDS011;484;48.128;11.602;2023-02-28T07:16:31;7.43;;;6.30;;
990;SDS011;484;48.128;11.602;2023-02-28T07:19:18;5.53;;;5.03;;
990;SDS011;484;48.128;11.602;2023-02-28T07:22:04;9.50;;;8.47;;
990;SDS011;484;48.128;11.602;2023-02-28T07:24:49;6.43;;;5.93;;
990;SDS011;484;48.128;11.602;2023-02-28T07:27:35;6.73;;;6.00;;
990;SDS011;484;48.128;11.602;2023-02-28T07:30:21;6.80;;;4.20;;
990;SDS011;484;48.128;11.602;2023-02-28T07:33:06;18.27;;;7.60;;
990;SDS011;484;48.128;11.602;2023-02-28T07:35:56;4.73;;;4.30;;
990;SDS011;484;48.128;11.602;2023-02-28T07:38:45;4.77;;;3.37;;
990;SDS011;484;48.128;11.602;2023-02-28T07:41:33;4.33;;;3.87;;
990;SDS011;484;48.128;11.602;2023-02-28T07:44:23;4.90;;;3.70;;
990;SDS011;484;48.128;11.602;2023-02-28T07:47:08;3.70;;;3.40;;
990;SDS011;484;48.128;11.602;2023-02-28T07:49:54;7.00;;;6.50;;
990;SDS011;484;48.128;11.602;2023-02-28T07:52:41;7.63;;;6.63;;
990;SDS011;484;48.128;11.602;2023-02-28T07:55:26;6.77;;;4.50;;
990;SDS011;484;48.128;11.602;2023-02-28T07:58:14;5.90;;;5.47;;
990;SDS011;484;48.128;11.602;2023-02-28T08:01:04;15.37;;;5.57;;
990;SDS011;484;48.128;11.602;2023-02-28T08:03:50;5.90;;;5.40;;
990;SDS011;484;48.128;11.602;2023-02-28T08:06:35;3.60;;;3.27;;
990;SDS011;484;48.128;11.602;2023-02-28T08:09:22;5.17;;;4.50;;
990;SDS011;484;48.128;11.602;2023-02-28T08:12:07;3.93;;;3.53;;
990;SDS011;484;48.128;11.602;2023-02-28T08:14:54;10.23;;;6.50;;
990;SDS011;484;48.128;11.602;2023-02-28T08:17:39;7.70;;;5.83;;
990;SDS011;484;48.128;11.602;2023-02-28T08:20:24;6.97;;;6.13;;
990;SDS011;484;48.128;11.602;2023-02-28T08:23:10;4.53;;;4.10;;
990;SDS011;484;48.128;11.602;2023-02-28T08:25:57;5.93;;;5.33;;
990;SDS011;484;48.128;11.602;2023-02-28T08:28:44;6.83;;;4.93;;
990;SDS011;484;48.128;11.602;2023-02-28T08:31:30;8.50;;;6.30;;
990;SDS011;484;48.128;11.602;2023-02-28T08:34:15;5.43;;;4.90;;
990;SDS011;484;48.128;11.602;2023-02-28T08:37:01;7.67;;;5.77;;
990;SDS011;484;48.128;11.602;2023-02-28T08:39:46;7.87;;;5.60;;
990;SDS011;484;48.128;11.602;2023-02-28T08:42:33;6.40;;;5.90;;
990;SDS011;484;48.128;11.602;2023-02-28T08:45:18;5.97;;;4.27;;
990;SDS011;484;48.128;11.602;2023-02-28T08:48:04;5.47;;;5.07;;
990;SDS011;484;48.128;11.602;2023-02-28T08:50:56;5.23;;;3.90;;
990;SDS011;484;48.128;11.602;2023-02-28T08:53:42;7.40;;;6.30;;
990;SDS011;484;48.128;11.602;2023-02-28T08:56:28;4.30;;;3.90;;
990;SDS011;484;48.128;11.602;2023-02-28T08:59:15;5.57;;;4.33;;
990;SDS011;484;48.128;11.602;2023-02-28T09:02:00;5.83;;;5.27;;
990;SDS011;484;48.128;11.602;2023-02-28T09:04:47;8.90;;;6.57;;
990;SDS011;484;48.128;11.602;2023-02-28T09:07:33;5.37;;;4.93;;
990;SDS011;484;48.128;11.602;2023-02-28T09:10:18;6.83;;;6.03;;
990;SDS011;484;48.128;11.602;2023-02-28T09:13:04;18.80;;;4.50;;
990;SDS011;484;48.128;11.602;2023-02-28T09:15:56;5.73;;;5.23;;
990;SDS011;484;48.128;11.602;2023-02-28T09:18:44;11.83;;;5.77;;
990;SDS011;484;48.128;11.602;2023-02-28T09:21:30;5.37;;;4.87;;
990;SDS011;484;48.128;11.602;2023-02-28T09:24:15;6.93;;;6.33;;
990;SDS011;484;48.128;11.602;2023-02-28T09:27:02;14.00;;;6.40;;
990;SDS011;484;48.128;11.602;2023-02-28T09:29:47;5.30;;;4.90;;
990;SDS011;484;48.128;11.602;2023-02-28T09:32:34;7.17;;;5.03;;
990;SDS011;484;48.128;11.602;2023-02-28T09:35:19;6.67;;;6.07;;
990;SDS011;484;48.128;11.602;2023-02-28T09:38:05;6.40;;;5.80;;
990;SDS011;484;48.128;11.602;2023-02-28T09:40:52;7.20;;;5.00;;
990;SDS011;484;48.128;11.602;2023-02-28T09:43:40;6.43;;;5.83;;
990;SDS011;484;48.128;11.602;2023-02-28T09:46:31;5.73;;;5.27;;
990;SDS011;484;48.128;11.602;2023-02-28T09:49:21;5.30;;;4.80;;
990;SDS011;484;48.128;11.602;2023-02-28T09:52:09;6.07;;;5.57;;
990;SDS011;484;48.128;11.602;2023-02-28T09:54:56;6.20;;;5.77;;
990;SDS011;484;48.128;11.602;2023-02-28T09:57:45;8.23;;;5.23;;
990;SDS011;484;48.128;11.602;2023-02-28T10:00:32;5.23;;;4.83;;
990;SDS011;484;48.128;11.602;2023-02-28T10:03:23;6.80;;;5.93;;
990;SDS011;484;48.128;11.602;2023-02-28T10:06:13;6.93;;;6.23;;
990;SDS011;484;48.128;11.602;2023-02-28T10:09:01;8.23;;;7.00;;
990;SDS011;484;48.128;11.602;2023-02-28T10:11:47;4.20;;;3.93;;
990;SDS011;484;48.128;11.602;2023-02-28T10:14:33;7.67;;;7.07;;
990;SDS011;484;48.128;11.602;2023-02-28T10:17:21;9.33;;;5.00;;
990;SDS011;484;48.128;11.602;2023-02-28T10:20:10;5.90;;;5.40;;
990;SDS011;484;48.128;11.602;2023-02-28T10:23:00;9.77;;;7.27;;
990;SDS011;484;48.128;11.602;2023-02-28T10:25:53;5.40;;;4.80;;
990;SDS011;484;48.128;11.602;2023-02-28T10:28:39;16.50;;;5.80;;
990;SDS011;484;48.128;11.602;2023-02-28T10:31:25;6.83;;;6.23;;
990;SDS011;484;48.128;11.602;2023-02-28T10:34:11;6.10;;;4.63;;
990;SDS011;484;48.128;11.602;2023-02-28T10:36:57;6.37;;;5.63;;
990;SDS011;484;48.128;11.602;2023-02-28T10:39:55;7.77;;;6.10;;
990;SDS011;484;48.128;11.602;2023-02-28T10:42:40;14.30;;;6.77;;
990;SDS011;484;48.128;11.602;2023-02-28T10:45:27;5.53;;;4.90;;
990;SDS011;484;48.128;11.602;2023-02-28T10:48:26;11.20;;;8.23;;
990;SDS011;484;48.128;11.602;2023-02-28T10:51:14;5.07;;;4.67;;
990;SDS011;484;48.128;11.602;2023-02-28T10:54:01;10.80;;;6.33;;
990;SDS011;484;48.128;11.602;2023-02-28T10:59:53;9.43;;;6.47;;
990;SDS011;484;48.128;11.602;2023-02-28T11:02:53;7.17;;;5.93;;
990;SDS011;484;48.128;11.602;2023-02-28T11:05:38;6.27;;;5.70;;
990;SDS011;484;48.128;11.602;2023-02-28T11:08:31;11.90;;;10.03;;
990;SDS011;484;48.128;11.602;2023-02-28T11:14:14;12.43;;;7.40;;
990;SDS011;484;48.128;11.602;2023-02-28T11:17:11;5.53;;;5.13;;
990;SDS011;484;48.128;11.602;2023-02-28T11:19:59;9.07;;;5.47;;
990;SDS011;484;48.128;11.602;2023-02-28T11:22:49;6.90;;;6.33;;
990;SDS011;484;48.128;11.602;2023-02-28T11:25:36;9.43;;;8.37;;
990;SDS011;484;48.128;11.602;2023-02-28T11:28:23;9.90;;;8.97;;
990;SDS011;484;48.128;11.602;2023-02-28T11:31:18;4.97;;;4.17;;
990;SDS011;484;48.128;11.602;2023-02-28T11:37:10;6.53;;;5.77;;
990;SDS011;484;48.128;11.602;2023-02-28T11:39:56;7.23;;;6.60;;
990;SDS011;484;48.128;11.602;2023-02-28T11:42:48;7.37;;;6.23;;
990;SDS011;484;48.128;11.602;2023-02-28T11:45:42;7.67;;;6.87;;
990;SDS011;484;48.128;11.602;2023-02-28T11:48:33;10.60;;;6.20;;
990;SDS011;484;48.128;11.602;2023-02-28T11:51:24;7.63;;;6.93;;
990;SDS011;484;48.128;11.602;2023-02-28T11:54:21;6.60;;;5.90;;
990;SDS011;484;48.128;11.602;2023-02-28T11:57:15;6.40;;;5.77;;
990;SDS011;484;48.128;11.602;2023-02-28T12:00:17;9.50;;;7.30;;
990;SDS011;484;48.128;11.602;2023-02-28T12:03:16;10.20;;;6.03;;
990;SDS011;484;48.128;11.602;2023-02-28T12:06:15;8.07;;;5.50;;
990;SDS011;484;48.128;11.602;2023-02-28T12:09:11;6.70;;;5.83;;
990;SDS011;484;48.128;11.602;2023-02-28T12:12:05;7.90;;;6.13;;
990;SDS011;484;48.128;11.602;2023-02-28T12:15:16;6.80;;;5.43;;
990;SDS011;484;48.128;11.602;2023-02-28T12:18:13;10.30;;;6.90;;
990;SDS011;484;48.128;11.602;2023-02-28T12:21:09;6.37;;;4.83;;
990;SDS011;484;48.128;11.602;2023-02-28T12:24:05;7.33;;;6.23;;
990;SDS011;484;48.128;11.602;2023-02-28T12:27:00;7.83;;;6.23;;
990;SDS011;484;48.128;11.602;2023-02-28T12:29:49;7.97;;;6.53;;
990;SDS011;484;48.128;11.602;2023-02-28T12:32:36;7.70;;;6.30;;
990;SDS011;484;48.128;11.602;2023-02-28T12:35:24;5.60;;;5.20;;
990;SDS011;484;48.128;11.602;2023-02-28T12:38:14;11.00;;;6.13;;
990;SDS011;484;48.128;11.602;2023-02-28T12:41:03;12.23;;;6.40;;
990;SDS011;484;48.128;11.602;2023-02-28T12:43:52;12.40;;;6.23;;
990;SDS011;484;48.128;11.602;2023-02-28T12:46:42;5.87;;;5.37;;
990;SDS011;484;48.128;11.602;2023-02-28T12:49:30;6.57;;;6.00;;
990;SDS011;484;48.128;11.602;2023-02-28T12:52:19;4.80;;;4.40;;
990;SDS011;484;48.128;11.602;2023-02-28T12:55:08;4.83;;;4.43;;
990;SDS011;484;48.128;11.602;2023-02-28T12:58:01;6.00;;;5.30;;
990;SDS011;484;48.128;11.602;2023-02-28T13:04:22;6.30;;;5.70;;
990;SDS011;484;48.128;11.602;2023-02-28T13:10:23;6.37;;;5.87;;
990;SDS011;484;48.128;11.602;2023-02-28T13:13:13;8.10;;;6.80;;
990;SDS011;484;48.128;11.602;2023-02-28T13:16:02;9.00;;;5.53;;
990;SDS011;484;48.128;11.602;2023-02-28T13:18:49;5.70;;;5.10;;
990;SDS011;484;48.128;11.602;2023-02-28T13:21:41;5.50;;;5.10;;
990;SDS011;484;48.128;11.602;2023-02-28T13:24:41;5.10;;;4.80;;
990;SDS011;484;48.128;11.602;2023-02-28T13:27:33;7.27;;;6.63;;
990;SDS011;484;48.128;11.602;2023-02-28T13:36:51;7.87;;;6.20;;
990;SDS011;484;48.128;11.602;2023-02-28T13:40:31;12.50;;;5.53;;
990;SDS011;484;48.128;11.602;2023-02-28T13:43:24;5.93;;;5.37;;
990;SDS011;484;48.128;11.602;2023-02-28T13:50:21;5.27;;;4.77;;
990;SDS011;484;48.128;11.602;2023-02-28T13:53:28;4.97;;;4.20;;
990;SDS011;484;48.128;11.602;2023-02-28T13:56:34;6.60;;;4.90;;
990;SDS011;484;48.128;11.602;2023-02-28T13:59:28;4.07;;;3.70;;
990;SDS011;484;48.128;11.602;2023-02-28T14:02:28;7.27;;;6.43;;
990;SDS011;484;48.128;11.602;2023-02-28T14:05:22;8.73;;;6.10;;
990;SDS011;484;48.128;11.602;2023-02-28T14:08:12;5.00;;;4.43;;
990;SDS011;484;48.128;11.602;2023-02-28T14:11:02;5.73;;;5.23;;
990;SDS011;484;48.128;11.602;2023-02-28T14:13:49;9.20;;;5.67;;
990;SDS011;484;48.128;11.602;2023-02-28T14:16:39;5.63;;;5.13;;
990;SDS011;484;48.128;11.602;2023-02-28T14:19:25;6.93;;;6.23;;
990;SDS011;484;48.128;11.602;2023-02-28T14:22:13;7.47;;;6.77;;
990;SDS011;484;48.128;11.602;2023-02-28T14:25:10;5.60;;;4.60;;
990;SDS011;484;48.128;11.602;2023-02-28T14:28:04;8.17;;;5.50;;
990;SDS011;484;48.128;11.602;2023-02-28T14:31:00;5.03;;;4.50;;
990;SDS011;484;48.128;11.602;2023-02-28T14:33:57;5.40;;;4.53;;
990;SDS011;484;48.128;11.602;2023-02-28T14:36:49;5.70;;;4.50;;
990;SDS011;484;48.128;11.602;2023-02-28T14:39:35;7.63;;;7.03;;
990;SDS011;484;48.128;11.602;2023-02-28T14:42:30;9.27;;;5.97;;
990;SDS011;484;48.128;11.602;2023-02-28T14:45:18;6.87;;;6.20;;
990;SDS011;484;48.128;11.602;2023-02-28T14:48:04;5.27;;;4.77;;
990;SDS011;484;48.128;11.602;2023-02-28T14:50:56;7.07;;;6.47;;
990;SDS011;484;48.128;11.602;2023-02-28T14:53:44;8.10;;;6.00;;
990;SDS011;484;48.128;11.602;2023-02-28T14:56:33;5.93;;;5.20;;
990;SDS011;484;48.128;11.602;2023-02-28T14:59:24;7.43;;;6.67;;
990;SDS011;484;48.128;11.602;2023-02-28T15:02:19;4.73;;;4.33;;
990;SDS011;484;48.128;11.602;2023-02-28T15:05:16;6.37;;;5.87;;
990;SDS011;484;48.128;11.602;2023-02-28T15:08:11;13.03;;;6.93;;
990;SDS011;484;48.128;11.602;2023-02-28T15:10:59;4.73;;;4.40;;
990;SDS011;484;48.128;11.602;2023-02-28T15:13:47;4.83;;;4.37;;
990;SDS011;484;48.128;11.602;2023-02-28T15:16:34;6.10;;;4.40;;
990;SDS011;484;48.128;11.602;2023-02-28T15:19:22;7.80;;;6.20;;
990;SDS011;484;48.128;11.602;2023-02-28T15:22:11;5.20;;;4.80;;
990;SDS011;484;48.128;11.602;2023-02-28T15:24:59;13.20;;;6.87;;
990;SDS011;484;48.128;11.602;2023-02-28T15:27:46;7.93;;;5.00;;
990;SDS011;484;48.128;11.602;2023-02-28T15:30:33;18.03;;;5.50;;
990;SDS011;484;48.128;11.602;2023-02-28T15:33:20;6.33;;;4.70;;
990;SDS011;484;48.128;11.602;2023-02-28T15:36:09;7.33;;;4.83;;
990;SDS011;484;48.128;11.602;2023-02-28T15:38:57;6.10;;;5.70;;
990;SDS011;484;48.128;11.602;2023-02-28T15:41:44;10.03;;;6.23;;
990;SDS011;484;48.128;11.602;2023-02-28T15:44:33;8.83;;;5.87;;
990;SDS011;484;48.128;11.602;2023-02-28T15:47:19;5.23;;;4.73;;
990;SDS011;484;48.128;11.602;2023-02-28T15:50:06;6.30;;;3.87;;
990;SDS011;484;48.128;11.602;2023-02-28T15:52:56;6.10;;;5.60;;
990;SDS011;484;48.128;11.602;2023-02-28T15:55:41;5.53;;;5.07;;
990;SDS011;484;48.128;11.602;2023-02-28T15:58:28;9.10;;;5.20;;
990;SDS011;484;48.128;11.602;2023-02-28T16:01:19;8.07;;;6.73;;
990;SDS011;484;48.128;11.602;2023-02-28T16:04:11;6.57;;;5.87;;
990;SDS011;484;48.128;11.602;2023-02-28T16:07:02;4.60;;;4.20;;
990;SDS011;484;48.128;11.602;2023-02-28T16:09:49;6.53;;;4.53;;
990;SDS011;484;48.128;11.602;2023-02-28T16:12:35;7.67;;;6.53;;
990;SDS011;484;48.128;11.602;2023-02-28T16:15:23;6.40;;;4.73;;
990;SDS011;484;48.128;11.602;2023-02-28T16:18:11;6.43;;;6.03;;
990;SDS011;484;48.128;11.602;2023-02-28T16:20:57;4.87;;;4.47;;
990;SDS011;484;48.128;11.602;2023-02-28T16:23:43;5.97;;;5.47;;
990;SDS011;484;48.128;11.602;2023-02-28T16:26:28;5.33;;;4.40;;
990;SDS011;484;48.128;11.602;2023-02-28T16:29:14;9.17;;;5.70;;
990;SDS011;484;48.128;11.602;2023-02-28T16:32:05;5.23;;;4.83;;
990;SDS011;484;48.128;11.602;2023-02-28T16:34:51;6.17;;;5.33;;
990;SDS011;484;48.128;11.602;2023-02-28T16:37:36;5.80;;;5.30;;
990;SDS011;484;48.128;11.602;2023-02-28T16:40:23;6.93;;;6.40;;
990;SDS011;484;48.128;11.602;2023-02-28T16:43:13;6.20;;;4.67;;
990;SDS011;484;48.128;11.602;2023-02-28T16:46:01;6.67;;;6.03;;
990;SDS011;484;48.128;11.602;2023-02-28T16:48:48;11.60;;;7.17;;
990;SDS011;484;48.128;11.602;2023-02-28T16:51:35;5.93;;;5.20;;
990;SDS011;484;48.128;11.602;2023-02-28T16:54:22;9.37;;;6.77;;
990;SDS011;484;48.128;11.602;2023-02-28T16:57:12;6.10;;;4.70;;
990;SDS011;484;48.128;11.602;2023-02-28T17:00:02;7.37;;;5.47;;
990;SDS011;484;48.128;11.602;2023-02-28T17:02:48;6.67;;;5.67;;
990;SDS011;484;48.128;11.602;2023-02-28T17:05:36;5.30;;;4.90;;
990;SDS011;484;48.128;11.602;2023-02-28T17:08:23;7.97;;;5.33;;
990;SDS011;484;48.128;11.602;2023-02-28T17:11:08;6.27;;;5.70;;
990;SDS011;484;48.128;11.602;2023-02-28T17:13:54;6.93;;;5.53;;
990;SDS011;484;48.128;11.602;2023-02-28T17:16:39;8.87;;;4.17;;
990;SDS011;484;48.128;11.602;2023-02-28T17:19:29;5.13;;;4.63;;
990;SDS011;484;48.128;11.602;2023-02-28T17:22:16;5.60;;;4.23;;
990;SDS011;484;48.128;11.602;2023-02-28T17:25:01;6.50;;;5.90;;
990;SDS011;484;48.128;11.602;2023-02-28T17:27:46;9.90;;;5.87;;
990;SDS011;484;48.128;11.602;2023-02-28T17:30:33;6.07;;;5.50;;
990;SDS011;484;48.128;11.602;2023-02-28T17:33:19;7.93;;;6.97;;
990;SDS011;484;48.128;11.602;2023-02-28T17:36:05;8.27;;;6.20;;
990;SDS011;484;48.128;11.602;2023-02-28T17:38:53;10.77;;;7.20;;
990;SDS011;484;48.128;11.602;2023-02-28T17:41:39;9.33;;;7.07;;
990;SDS011;484;48.128;11.602;2023-02-28T17:44:25;10.23;;;5.33;;
990;SDS011;484;48.128;11.602;2023-02-28T17:47:16;11.73;;;7.37;;
990;SDS011;484;48.128;11.602;2023-02-28T17:50:01;13.20;;;8.20;;
990;SDS011;484;48.128;11.602;2023-02-28T17:52:47;6.17;;;5.57;;
990;SDS011;484;48.128;11.602;2023-02-28T17:55:35;7.80;;;5.00;;
990;SDS011;484;48.128;11.602;2023-02-28T17:58:20;13.70;;;8.90;;
990;SDS011;484;48.128;11.602;2023-02-28T18:01:06;9.40;;;8.57;;
990;SDS011;484;48.128;11.602;2023-02-28T18:03:51;13.30;;;7.23;;
990;SDS011;484;48.128;11.602;2023-02-28T18:06:38;9.43;;;7.33;;
990;SDS011;484;48.128;11.602;2023-02-28T18:09:29;8.43;;;6.17;;
990;SDS011;484;48.128;11.602;2023-02-28T18:12:16;8.03;;;4.93;;
990;SDS011;484;48.128;11.602;2023-02-28T18:15:02;8.33;;;6.20;;
990;SDS011;484;48.128;11.602;2023-02-28T18:17:48;18.63;;;8.03;;
990;SDS011;484;48.128;11.602;2023-02-28T18:20:34;8.67;;;5.00;;